Portada
METAR-TAF:

METAR-TAF

Aeroports :

Alderney,

latitud: 49-43N, longitud: 002-12W, altitud: 71 m

Observació

L'informe es va fer fa 2 hores i 44 minuts, a les 17:50 UTC
Vent 13 kt del Est/Nord-Est
Temperatura 17°C
Humitat 59%
Pressió 1020 hPa
Visibilitat 10 km o més
sense núvols per sota de 1500 mi sense presència de cumulonimbus.

METAR: EGJA 011750Z 07013KT CAVOK 17/09 Q1020

Hora: 21:34 (20:34 UTC)

Pronòstic

L'informe es va fer fa 6 hores i 34 minuts, a les 14:00 UTC
Pronòstic vàlid del 01 a les 15 UTC al 02 a les 00 UTC
Vent 15 kt del Nord-Est
Visibilitat 10 km o més
sense núvols per sota de 1500 mi sense presència de cumulonimbus.

TAF: EGJA 011400Z 0115/0200 05015KT CAVOK

Observacions i pronòstics meteorològics de més de 4000 aeroports (METAR i TAF).

Les estacions disponibles són els punts grocs i vermells al mapa.

Posi el ratolí al punt desitjat per veure el nom de l'estació.

Feu clic per veure les observacions i els pronòstics meteorològics.

Per canviar el mapa: feu clic els botons verds amb una creu de color negre per apropar; al botó verd amb un guió per allunyar la imatge; o en les fletxes verdes per a mapes adjacents.


METAR-TAF: